sensor_id;sensor_type;location;lat;lon;timestamp;temperature;humidity
5588;DHT22;2816;49.778;9.986;2023-07-31T00:02:21;18.50;99.90
5588;DHT22;2816;49.778;9.986;2023-07-31T00:04:48;18.50;99.90
5588;DHT22;2816;49.778;9.986;2023-07-31T00:07:15;18.40;99.90
5588;DHT22;2816;49.778;9.986;2023-07-31T00:09:42;18.40;99.90
5588;DHT22;2816;49.778;9.986;2023-07-31T00:12:09;18.40;99.90
5588;DHT22;2816;49.778;9.986;2023-07-31T00:14:36;18.40;99.90
5588;DHT22;2816;49.778;9.986;2023-07-31T00:17:03;18.30;99.90
5588;DHT22;2816;49.778;9.986;2023-07-31T00:19:32;18.30;99.90
5588;DHT22;2816;49.778;9.986;2023-07-31T00:21:59;18.40;99.90
5588;DHT22;2816;49.778;9.986;2023-07-31T00:24:26;18.40;99.90
5588;DHT22;2816;49.778;9.986;2023-07-31T00:26:53;18.30;99.90
5588;DHT22;2816;49.778;9.986;2023-07-31T00:29:20;18.30;99.90
5588;DHT22;2816;49.778;9.986;2023-07-31T00:31:46;18.30;99.90
5588;DHT22;2816;49.778;9.986;2023-07-31T00:34:13;18.30;99.90
5588;DHT22;2816;49.778;9.986;2023-07-31T00:36:42;18.20;99.90
5588;DHT22;2816;49.778;9.986;2023-07-31T00:39:09;18.20;99.90
5588;DHT22;2816;49.778;9.986;2023-07-31T00:41:35;18.20;99.90
5588;DHT22;2816;49.778;9.986;2023-07-31T00:44:03;18.10;99.90
5588;DHT22;2816;49.778;9.986;2023-07-31T00:46:29;18.10;99.90
5588;DHT22;2816;49.778;9.986;2023-07-31T00:48:57;18.10;99.90
5588;DHT22;2816;49.778;9.986;2023-07-31T00:51:24;18.20;99.90
5588;DHT22;2816;49.778;9.986;2023-07-31T00:53:53;18.20;99.90
5588;DHT22;2816;49.778;9.986;2023-07-31T00:56:21;18.30;99.90
5588;DHT22;2816;49.778;9.986;2023-07-31T00:58:48;18.20;99.90
5588;DHT22;2816;49.778;9.986;2023-07-31T01:01:15;18.30;99.90
5588;DHT22;2816;49.778;9.986;2023-07-31T01:03:43;18.20;99.90
5588;DHT22;2816;49.778;9.986;2023-07-31T01:06:17;18.30;99.90
5588;DHT22;2816;49.778;9.986;2023-07-31T01:08:57;18.20;99.90
5588;DHT22;2816;49.778;9.986;2023-07-31T01:11:27;18.30;99.90
5588;DHT22;2816;49.778;9.986;2023-07-31T01:13:55;18.30;99.90
5588;DHT22;2816;49.778;9.986;2023-07-31T01:16:22;18.30;99.90
5588;DHT22;2816;49.778;9.986;2023-07-31T01:18:49;18.30;99.90
5588;DHT22;2816;49.778;9.986;2023-07-31T01:21:26;18.30;99.90
5588;DHT22;2816;49.778;9.986;2023-07-31T01:24:21;18.20;99.90
5588;DHT22;2816;49.778;9.986;2023-07-31T01:26:56;18.20;99.90
5588;DHT22;2816;49.778;9.986;2023-07-31T01:29:29;18.20;99.90
5588;DHT22;2816;49.778;9.986;2023-07-31T01:32:01;18.20;99.90
5588;DHT22;2816;49.778;9.986;2023-07-31T01:34:29;18.20;99.90
5588;DHT22;2816;49.778;9.986;2023-07-31T01:36:56;18.20;99.90
5588;DHT22;2816;49.778;9.986;2023-07-31T01:39:23;18.20;99.90
5588;DHT22;2816;49.778;9.986;2023-07-31T01:41:52;18.20;99.90
5588;DHT22;2816;49.778;9.986;2023-07-31T01:44:19;18.20;99.90
5588;DHT22;2816;49.778;9.986;2023-07-31T01:46:46;18.20;99.90
5588;DHT22;2816;49.778;9.986;2023-07-31T01:49:13;18.20;99.90
5588;DHT22;2816;49.778;9.986;2023-07-31T01:51:39;18.10;99.90
5588;DHT22;2816;49.778;9.986;2023-07-31T01:54:06;18.20;99.90
5588;DHT22;2816;49.778;9.986;2023-07-31T01:56:33;18.20;99.90
5588;DHT22;2816;49.778;9.986;2023-07-31T01:59:01;18.10;99.90
5588;DHT22;2816;49.778;9.986;2023-07-31T02:01:28;18.10;99.90
5588;DHT22;2816;49.778;9.986;2023-07-31T02:03:55;18.00;99.90
5588;DHT22;2816;49.778;9.986;2023-07-31T02:06:23;18.10;99.90
5588;DHT22;2816;49.778;9.986;2023-07-31T02:08:50;18.10;99.90
5588;DHT22;2816;49.778;9.986;2023-07-31T02:11:17;18.00;99.90
5588;DHT22;2816;49.778;9.986;2023-07-31T02:13:44;18.00;99.90
5588;DHT22;2816;49.778;9.986;2023-07-31T02:16:12;17.90;99.90
5588;DHT22;2816;49.778;9.986;2023-07-31T02:18:39;18.00;99.90
5588;DHT22;2816;49.778;9.986;2023-07-31T02:21:06;18.00;99.90
5588;DHT22;2816;49.778;9.986;2023-07-31T02:23:33;17.90;99.90
5588;DHT22;2816;49.778;9.986;2023-07-31T02:26:00;18.00;99.90
5588;DHT22;2816;49.778;9.986;2023-07-31T02:28:28;18.00;99.90
5588;DHT22;2816;49.778;9.986;2023-07-31T02:30:55;18.00;99.90
5588;DHT22;2816;49.778;9.986;2023-07-31T02:33:23;18.00;99.90
5588;DHT22;2816;49.778;9.986;2023-07-31T02:35:50;17.90;99.90
5588;DHT22;2816;49.778;9.986;2023-07-31T02:38:17;18.00;99.90
5588;DHT22;2816;49.778;9.986;2023-07-31T02:40:44;17.90;99.90
5588;DHT22;2816;49.778;9.986;2023-07-31T02:43:11;17.90;99.90
5588;DHT22;2816;49.778;9.986;2023-07-31T02:45:38;17.90;99.90
5588;DHT22;2816;49.778;9.986;2023-07-31T02:48:05;17.90;99.90
5588;DHT22;2816;49.778;9.986;2023-07-31T02:50:33;17.90;99.90
5588;DHT22;2816;49.778;9.986;2023-07-31T02:53:00;17.90;99.90
5588;DHT22;2816;49.778;9.986;2023-07-31T02:55:27;17.90;99.90
5588;DHT22;2816;49.778;9.986;2023-07-31T02:57:54;17.90;99.90
5588;DHT22;2816;49.778;9.986;2023-07-31T03:00:21;17.80;99.90
5588;DHT22;2816;49.778;9.986;2023-07-31T03:02:48;17.80;99.90
5588;DHT22;2816;49.778;9.986;2023-07-31T03:05:15;17.70;99.90
5588;DHT22;2816;49.778;9.986;2023-07-31T03:07:43;17.70;99.90
5588;DHT22;2816;49.778;9.986;2023-07-31T03:10:10;17.70;99.90
5588;DHT22;2816;49.778;9.986;2023-07-31T03:12:37;17.60;99.90
5588;DHT22;2816;49.778;9.986;2023-07-31T03:15:05;17.60;99.90
5588;DHT22;2816;49.778;9.986;2023-07-31T03:17:32;17.60;99.90
5588;DHT22;2816;49.778;9.986;2023-07-31T03:19:59;17.50;99.90
5588;DHT22;2816;49.778;9.986;2023-07-31T03:22:26;17.60;99.90
5588;DHT22;2816;49.778;9.986;2023-07-31T03:24:54;17.60;99.90
5588;DHT22;2816;49.778;9.986;2023-07-31T03:27:21;17.60;99.90
5588;DHT22;2816;49.778;9.986;2023-07-31T03:29:48;17.60;99.90
5588;DHT22;2816;49.778;9.986;2023-07-31T03:32:17;17.50;99.90
5588;DHT22;2816;49.778;9.986;2023-07-31T03:34:43;17.60;99.90
5588;DHT22;2816;49.778;9.986;2023-07-31T03:37:10;17.60;99.90
5588;DHT22;2816;49.778;9.986;2023-07-31T03:39:37;17.60;99.90
5588;DHT22;2816;49.778;9.986;2023-07-31T03:42:06;17.50;99.90
5588;DHT22;2816;49.778;9.986;2023-07-31T03:44:33;17.50;99.90
5588;DHT22;2816;49.778;9.986;2023-07-31T03:47:00;17.50;99.90
5588;DHT22;2816;49.778;9.986;2023-07-31T03:49:27;17.50;99.90
5588;DHT22;2816;49.778;9.986;2023-07-31T03:51:54;17.70;99.90
5588;DHT22;2816;49.778;9.986;2023-07-31T03:54:21;17.60;99.90
5588;DHT22;2816;49.778;9.986;2023-07-31T03:56:48;17.60;99.90
5588;DHT22;2816;49.778;9.986;2023-07-31T03:59:16;17.60;99.90
5588;DHT22;2816;49.778;9.986;2023-07-31T04:01:43;17.50;99.90
5588;DHT22;2816;49.778;9.986;2023-07-31T04:04:10;17.50;99.90
5588;DHT22;2816;49.778;9.986;2023-07-31T04:06:37;17.50;99.90
5588;DHT22;2816;49.778;9.986;2023-07-31T04:09:04;17.40;99.90
5588;DHT22;2816;49.778;9.986;2023-07-31T04:11:32;17.50;99.90
5588;DHT22;2816;49.778;9.986;2023-07-31T04:13:59;17.50;99.90
5588;DHT22;2816;49.778;9.986;2023-07-31T04:16:27;17.50;99.90
5588;DHT22;2816;49.778;9.986;2023-07-31T04:18:54;17.50;99.90
5588;DHT22;2816;49.778;9.986;2023-07-31T04:21:21;17.50;99.90
5588;DHT22;2816;49.778;9.986;2023-07-31T04:23:48;17.50;99.90
5588;DHT22;2816;49.778;9.986;2023-07-31T04:26:15;17.50;99.90
5588;DHT22;2816;49.778;9.986;2023-07-31T04:28:41;17.50;99.90
5588;DHT22;2816;49.778;9.986;2023-07-31T04:31:08;17.50;99.90
5588;DHT22;2816;49.778;9.986;2023-07-31T04:33:37;17.50;99.90
5588;DHT22;2816;49.778;9.986;2023-07-31T04:36:04;17.60;99.90
5588;DHT22;2816;49.778;9.986;2023-07-31T04:38:31;17.60;99.90
5588;DHT22;2816;49.778;9.986;2023-07-31T04:40:58;17.60;99.90
5588;DHT22;2816;49.778;9.986;2023-07-31T04:43:25;17.60;99.90
5588;DHT22;2816;49.778;9.986;2023-07-31T04:45:52;17.60;99.90
5588;DHT22;2816;49.778;9.986;2023-07-31T04:48:19;17.60;99.90
5588;DHT22;2816;49.778;9.986;2023-07-31T04:50:47;17.50;99.90
5588;DHT22;2816;49.778;9.986;2023-07-31T04:53:14;17.60;99.90
5588;DHT22;2816;49.778;9.986;2023-07-31T04:55:41;17.60;99.90
5588;DHT22;2816;49.778;9.986;2023-07-31T04:58:08;17.50;99.90
5588;DHT22;2816;49.778;9.986;2023-07-31T05:00:34;17.60;99.90
5588;DHT22;2816;49.778;9.986;2023-07-31T05:03:01;17.60;99.90
5588;DHT22;2816;49.778;9.986;2023-07-31T05:05:28;17.70;99.90
5588;DHT22;2816;49.778;9.986;2023-07-31T05:07:56;17.60;99.90
5588;DHT22;2816;49.778;9.986;2023-07-31T05:10:23;17.60;99.90
5588;DHT22;2816;49.778;9.986;2023-07-31T05:12:50;17.70;99.90
5588;DHT22;2816;49.778;9.986;2023-07-31T05:15:17;17.70;99.90
5588;DHT22;2816;49.778;9.986;2023-07-31T05:17:44;17.70;99.90
5588;DHT22;2816;49.778;9.986;2023-07-31T05:20:11;17.60;99.90
5588;DHT22;2816;49.778;9.986;2023-07-31T05:22:38;17.60;99.90
5588;DHT22;2816;49.778;9.986;2023-07-31T05:25:07;17.70;99.90
5588;DHT22;2816;49.778;9.986;2023-07-31T05:27:34;17.70;99.90
5588;DHT22;2816;49.778;9.986;2023-07-31T05:30:01;17.80;99.90
5588;DHT22;2816;49.778;9.986;2023-07-31T05:32:28;17.70;99.90
5588;DHT22;2816;49.778;9.986;2023-07-31T05:34:55;17.70;99.90
5588;DHT22;2816;49.778;9.986;2023-07-31T05:37:22;17.80;99.90
5588;DHT22;2816;49.778;9.986;2023-07-31T05:39:49;17.80;99.90
5588;DHT22;2816;49.778;9.986;2023-07-31T05:42:18;17.90;99.90
5588;DHT22;2816;49.778;9.986;2023-07-31T05:44:45;17.80;99.90
5588;DHT22;2816;49.778;9.986;2023-07-31T05:47:12;17.90;99.90
5588;DHT22;2816;49.778;9.986;2023-07-31T05:49:39;17.80;99.90
5588;DHT22;2816;49.778;9.986;2023-07-31T05:52:07;17.80;99.90
5588;DHT22;2816;49.778;9.986;2023-07-31T05:54:34;17.90;99.90
5588;DHT22;2816;49.778;9.986;2023-07-31T05:57:00;17.90;99.90
5588;DHT22;2816;49.778;9.986;2023-07-31T05:59:29;17.90;99.90
5588;DHT22;2816;49.778;9.986;2023-07-31T06:01:58;18.00;99.90
5588;DHT22;2816;49.778;9.986;2023-07-31T06:04:25;18.00;99.90
5588;DHT22;2816;49.778;9.986;2023-07-31T06:06:52;17.90;99.90
5588;DHT22;2816;49.778;9.986;2023-07-31T06:09:19;18.00;99.90
5588;DHT22;2816;49.778;9.986;2023-07-31T06:11:46;18.10;99.90
5588;DHT22;2816;49.778;9.986;2023-07-31T06:14:14;18.10;99.90
5588;DHT22;2816;49.778;9.986;2023-07-31T06:16:42;18.10;99.90
5588;DHT22;2816;49.778;9.986;2023-07-31T06:19:09;18.10;99.90
5588;DHT22;2816;49.778;9.986;2023-07-31T06:21:36;18.10;99.90
5588;DHT22;2816;49.778;9.986;2023-07-31T06:24:04;18.20;99.90
5588;DHT22;2816;49.778;9.986;2023-07-31T06:26:31;18.10;99.90
5588;DHT22;2816;49.778;9.986;2023-07-31T06:28:58;18.10;99.90
5588;DHT22;2816;49.778;9.986;2023-07-31T06:31:25;18.20;99.90
5588;DHT22;2816;49.778;9.986;2023-07-31T06:33:53;18.30;99.90
5588;DHT22;2816;49.778;9.986;2023-07-31T06:36:20;18.20;99.90
5588;DHT22;2816;49.778;9.986;2023-07-31T06:38:47;18.20;99.90
5588;DHT22;2816;49.778;9.986;2023-07-31T06:41:14;18.30;99.90
5588;DHT22;2816;49.778;9.986;2023-07-31T06:43:41;18.30;99.90
5588;DHT22;2816;49.778;9.986;2023-07-31T06:46:09;18.30;99.90
5588;DHT22;2816;49.778;9.986;2023-07-31T06:48:36;18.40;99.90
5588;DHT22;2816;49.778;9.986;2023-07-31T06:51:04;18.40;99.90
5588;DHT22;2816;49.778;9.986;2023-07-31T06:53:31;18.50;99.90
5588;DHT22;2816;49.778;9.986;2023-07-31T06:55:58;18.50;99.90
5588;DHT22;2816;49.778;9.986;2023-07-31T06:58:25;18.50;99.90
5588;DHT22;2816;49.778;9.986;2023-07-31T07:00:52;18.50;99.90
5588;DHT22;2816;49.778;9.986;2023-07-31T07:03:19;18.50;99.90
5588;DHT22;2816;49.778;9.986;2023-07-31T07:05:46;18.50;99.90
5588;DHT22;2816;49.778;9.986;2023-07-31T07:08:17;18.50;99.90
5588;DHT22;2816;49.778;9.986;2023-07-31T07:10:44;18.60;99.90
5588;DHT22;2816;49.778;9.986;2023-07-31T07:13:11;18.70;99.90
5588;DHT22;2816;49.778;9.986;2023-07-31T07:15:39;18.70;99.90
5588;DHT22;2816;49.778;9.986;2023-07-31T07:18:06;18.80;99.90
5588;DHT22;2816;49.778;9.986;2023-07-31T07:20:33;18.80;99.90
5588;DHT22;2816;49.778;9.986;2023-07-31T07:23:00;18.90;99.90
5588;DHT22;2816;49.778;9.986;2023-07-31T07:25:28;18.80;99.90
5588;DHT22;2816;49.778;9.986;2023-07-31T07:27:55;19.00;99.90
5588;DHT22;2816;49.778;9.986;2023-07-31T07:30:22;19.10;99.90
5588;DHT22;2816;49.778;9.986;2023-07-31T07:32:50;19.00;99.90
5588;DHT22;2816;49.778;9.986;2023-07-31T07:35:17;19.10;99.90
5588;DHT22;2816;49.778;9.986;2023-07-31T07:37:44;19.20;99.90
5588;DHT22;2816;49.778;9.986;2023-07-31T07:40:11;19.20;99.90
5588;DHT22;2816;49.778;9.986;2023-07-31T07:42:39;19.30;99.90
5588;DHT22;2816;49.778;9.986;2023-07-31T07:45:07;19.10;99.90
5588;DHT22;2816;49.778;9.986;2023-07-31T07:47:34;19.20;99.90
5588;DHT22;2816;49.778;9.986;2023-07-31T07:50:01;19.20;99.90
5588;DHT22;2816;49.778;9.986;2023-07-31T07:52:28;19.20;99.90
5588;DHT22;2816;49.778;9.986;2023-07-31T07:54:56;19.30;99.90
5588;DHT22;2816;49.778;9.986;2023-07-31T07:57:22;19.30;99.90
5588;DHT22;2816;49.778;9.986;2023-07-31T07:59:51;19.40;99.90
5588;DHT22;2816;49.778;9.986;2023-07-31T08:02:18;19.50;99.90
5588;DHT22;2816;49.778;9.986;2023-07-31T08:04:45;19.80;99.90
5588;DHT22;2816;49.778;9.986;2023-07-31T08:07:12;19.80;99.90
5588;DHT22;2816;49.778;9.986;2023-07-31T08:09:39;19.80;99.90
5588;DHT22;2816;49.778;9.986;2023-07-31T08:12:07;19.90;99.90
5588;DHT22;2816;49.778;9.986;2023-07-31T08:14:34;19.90;99.90
5588;DHT22;2816;49.778;9.986;2023-07-31T08:17:03;20.00;99.90
5588;DHT22;2816;49.778;9.986;2023-07-31T08:19:30;20.00;99.90
5588;DHT22;2816;49.778;9.986;2023-07-31T08:21:56;19.90;99.90
5588;DHT22;2816;49.778;9.986;2023-07-31T08:24:23;19.90;99.90
5588;DHT22;2816;49.778;9.986;2023-07-31T08:26:50;20.00;99.90
5588;DHT22;2816;49.778;9.986;2023-07-31T08:29:17;20.00;99.90
5588;DHT22;2816;49.778;9.986;2023-07-31T08:31:44;20.00;99.90
5588;DHT22;2816;49.778;9.986;2023-07-31T08:34:12;20.10;99.90
5588;DHT22;2816;49.778;9.986;2023-07-31T08:36:39;20.00;99.90
5588;DHT22;2816;49.778;9.986;2023-07-31T08:39:06;20.00;99.90
5588;DHT22;2816;49.778;9.986;2023-07-31T08:41:37;20.10;99.90
5588;DHT22;2816;49.778;9.986;2023-07-31T08:44:05;20.10;99.90
5588;DHT22;2816;49.778;9.986;2023-07-31T08:46:32;20.10;99.90
5588;DHT22;2816;49.778;9.986;2023-07-31T08:48:59;20.20;99.90
5588;DHT22;2816;49.778;9.986;2023-07-31T08:51:29;20.30;99.90
5588;DHT22;2816;49.778;9.986;2023-07-31T08:53:56;20.30;99.90
5588;DHT22;2816;49.778;9.986;2023-07-31T08:56:24;20.30;99.90
5588;DHT22;2816;49.778;9.986;2023-07-31T08:58:53;20.40;99.90
5588;DHT22;2816;49.778;9.986;2023-07-31T09:01:21;20.50;99.90
5588;DHT22;2816;49.778;9.986;2023-07-31T09:03:49;20.70;99.90
5588;DHT22;2816;49.778;9.986;2023-07-31T09:06:18;20.70;99.90
5588;DHT22;2816;49.778;9.986;2023-07-31T09:08:49;20.80;99.90
5588;DHT22;2816;49.778;9.986;2023-07-31T09:11:17;20.80;99.90
5588;DHT22;2816;49.778;9.986;2023-07-31T09:13:46;20.90;99.90
5588;DHT22;2816;49.778;9.986;2023-07-31T09:16:12;21.10;99.90
5588;DHT22;2816;49.778;9.986;2023-07-31T09:18:53;21.20;99.90
5588;DHT22;2816;49.778;9.986;2023-07-31T09:21:20;21.20;99.90
5588;DHT22;2816;49.778;9.986;2023-07-31T09:23:50;21.20;99.90
5588;DHT22;2816;49.778;9.986;2023-07-31T09:26:32;21.20;99.90
5588;DHT22;2816;49.778;9.986;2023-07-31T09:29:00;21.20;99.90
5588;DHT22;2816;49.778;9.986;2023-07-31T09:31:38;21.40;99.90
5588;DHT22;2816;49.778;9.986;2023-07-31T09:34:06;21.20;99.90
5588;DHT22;2816;49.778;9.986;2023-07-31T09:36:37;21.30;99.90
5588;DHT22;2816;49.778;9.986;2023-07-31T09:39:09;21.40;99.90
5588;DHT22;2816;49.778;9.986;2023-07-31T09:41:36;21.50;99.90
5588;DHT22;2816;49.778;9.986;2023-07-31T09:44:05;21.60;99.90
5588;DHT22;2816;49.778;9.986;2023-07-31T09:46:34;21.70;99.90
5588;DHT22;2816;49.778;9.986;2023-07-31T09:49:07;21.70;99.90
5588;DHT22;2816;49.778;9.986;2023-07-31T09:51:35;21.80;99.90
5588;DHT22;2816;49.778;9.986;2023-07-31T09:54:10;21.90;99.90
5588;DHT22;2816;49.778;9.986;2023-07-31T09:56:42;21.80;99.90
5588;DHT22;2816;49.778;9.986;2023-07-31T09:59:12;22.00;99.90
5588;DHT22;2816;49.778;9.986;2023-07-31T10:01:40;21.80;99.90
5588;DHT22;2816;49.778;9.986;2023-07-31T10:04:08;21.80;99.90
5588;DHT22;2816;49.778;9.986;2023-07-31T10:06:37;21.80;99.90
5588;DHT22;2816;49.778;9.986;2023-07-31T10:09:06;21.90;99.90
5588;DHT22;2816;49.778;9.986;2023-07-31T10:11:38;21.80;99.90
5588;DHT22;2816;49.778;9.986;2023-07-31T10:14:09;21.90;99.90
5588;DHT22;2816;49.778;9.986;2023-07-31T10:16:38;22.00;99.90
5588;DHT22;2816;49.778;9.986;2023-07-31T10:19:06;22.00;99.90
5588;DHT22;2816;49.778;9.986;2023-07-31T10:21:35;22.20;99.90
5588;DHT22;2816;49.778;9.986;2023-07-31T10:24:04;22.10;99.90
5588;DHT22;2816;49.778;9.986;2023-07-31T10:26:32;21.90;99.90
5588;DHT22;2816;49.778;9.986;2023-07-31T10:29:01;21.90;99.90
5588;DHT22;2816;49.778;9.986;2023-07-31T10:31:28;21.70;99.90
5588;DHT22;2816;49.778;9.986;2023-07-31T10:33:56;21.40;99.90
5588;DHT22;2816;49.778;9.986;2023-07-31T10:36:24;21.30;99.90
5588;DHT22;2816;49.778;9.986;2023-07-31T10:38:51;21.30;99.90
5588;DHT22;2816;49.778;9.986;2023-07-31T10:41:18;21.20;99.90
5588;DHT22;2816;49.778;9.986;2023-07-31T10:43:46;21.30;99.90
5588;DHT22;2816;49.778;9.986;2023-07-31T10:46:14;21.30;99.90
5588;DHT22;2816;49.778;9.986;2023-07-31T10:48:41;21.50;99.90
5588;DHT22;2816;49.778;9.986;2023-07-31T10:51:10;21.70;99.90
5588;DHT22;2816;49.778;9.986;2023-07-31T10:53:38;21.80;99.90
5588;DHT22;2816;49.778;9.986;2023-07-31T10:56:06;22.00;99.90
5588;DHT22;2816;49.778;9.986;2023-07-31T10:58:33;22.00;99.90
5588;DHT22;2816;49.778;9.986;2023-07-31T11:01:02;22.20;99.90
5588;DHT22;2816;49.778;9.986;2023-07-31T11:03:42;22.30;99.90
5588;DHT22;2816;49.778;9.986;2023-07-31T11:06:10;22.30;99.90
5588;DHT22;2816;49.778;9.986;2023-07-31T11:08:42;22.40;99.90
5588;DHT22;2816;49.778;9.986;2023-07-31T11:11:10;22.40;99.90
5588;DHT22;2816;49.778;9.986;2023-07-31T11:13:42;22.50;99.90
5588;DHT22;2816;49.778;9.986;2023-07-31T11:16:09;22.80;99.90
5588;DHT22;2816;49.778;9.986;2023-07-31T11:18:38;22.90;99.90
5588;DHT22;2816;49.778;9.986;2023-07-31T11:21:07;22.90;99.90
5588;DHT22;2816;49.778;9.986;2023-07-31T11:23:33;23.10;99.90
5588;DHT22;2816;49.778;9.986;2023-07-31T11:26:00;23.10;99.90
5588;DHT22;2816;49.778;9.986;2023-07-31T11:28:31;23.00;99.90
5588;DHT22;2816;49.778;9.986;2023-07-31T11:30:59;22.90;99.90
5588;DHT22;2816;49.778;9.986;2023-07-31T11:33:26;22.80;99.90
5588;DHT22;2816;49.778;9.986;2023-07-31T11:35:54;22.70;99.40
5588;DHT22;2816;49.778;9.986;2023-07-31T11:38:26;22.70;99.90
5588;DHT22;2816;49.778;9.986;2023-07-31T11:40:55;22.60;99.90
5588;DHT22;2816;49.778;9.986;2023-07-31T11:43:23;22.70;99.90
5588;DHT22;2816;49.778;9.986;2023-07-31T11:45:51;22.80;99.50
5588;DHT22;2816;49.778;9.986;2023-07-31T11:48:19;22.60;99.90
5588;DHT22;2816;49.778;9.986;2023-07-31T11:50:49;22.60;99.90
5588;DHT22;2816;49.778;9.986;2023-07-31T11:53:19;22.50;99.90
5588;DHT22;2816;49.778;9.986;2023-07-31T11:55:49;22.40;99.90
5588;DHT22;2816;49.778;9.986;2023-07-31T11:58:17;22.50;99.90
5588;DHT22;2816;49.778;9.986;2023-07-31T12:00:44;22.50;99.70
5588;DHT22;2816;49.778;9.986;2023-07-31T12:03:12;22.40;99.90
5588;DHT22;2816;49.778;9.986;2023-07-31T12:05:39;22.40;99.70
5588;DHT22;2816;49.778;9.986;2023-07-31T12:08:09;22.30;99.90
5588;DHT22;2816;49.778;9.986;2023-07-31T12:10:37;22.30;99.90
5588;DHT22;2816;49.778;9.986;2023-07-31T12:13:09;22.50;99.90
5588;DHT22;2816;49.778;9.986;2023-07-31T12:15:39;22.50;99.80
5588;DHT22;2816;49.778;9.986;2023-07-31T12:18:08;22.50;99.20
5588;DHT22;2816;49.778;9.986;2023-07-31T12:20:39;22.60;99.20
5588;DHT22;2816;49.778;9.986;2023-07-31T12:23:07;22.60;99.50
5588;DHT22;2816;49.778;9.986;2023-07-31T12:25:34;22.60;99.40
5588;DHT22;2816;49.778;9.986;2023-07-31T12:28:07;22.60;99.50
5588;DHT22;2816;49.778;9.986;2023-07-31T12:30:38;22.50;99.90
5588;DHT22;2816;49.778;9.986;2023-07-31T12:33:05;22.40;99.90
5588;DHT22;2816;49.778;9.986;2023-07-31T12:35:37;22.20;99.90
5588;DHT22;2816;49.778;9.986;2023-07-31T12:38:04;22.30;99.60
5588;DHT22;2816;49.778;9.986;2023-07-31T12:40:31;22.40;99.50
5588;DHT22;2816;49.778;9.986;2023-07-31T12:43:00;22.30;99.90
5588;DHT22;2816;49.778;9.986;2023-07-31T12:45:28;22.30;99.20
5588;DHT22;2816;49.778;9.986;2023-07-31T12:47:56;22.50;99.10
5588;DHT22;2816;49.778;9.986;2023-07-31T12:50:23;22.90;99.50
5588;DHT22;2816;49.778;9.986;2023-07-31T12:52:51;23.10;99.50
5588;DHT22;2816;49.778;9.986;2023-07-31T12:55:18;23.20;98.50
5588;DHT22;2816;49.778;9.986;2023-07-31T12:57:45;23.10;98.60
5588;DHT22;2816;49.778;9.986;2023-07-31T13:00:13;23.10;98.70
5588;DHT22;2816;49.778;9.986;2023-07-31T13:02:41;23.10;99.10
5588;DHT22;2816;49.778;9.986;2023-07-31T13:05:08;23.00;99.10
5588;DHT22;2816;49.778;9.986;2023-07-31T13:07:35;22.90;99.50
5588;DHT22;2816;49.778;9.986;2023-07-31T13:10:02;22.70;99.90
5588;DHT22;2816;49.778;9.986;2023-07-31T13:12:29;22.60;99.90
5588;DHT22;2816;49.778;9.986;2023-07-31T13:14:56;22.20;99.90
5588;DHT22;2816;49.778;9.986;2023-07-31T13:17:23;21.80;99.90
5588;DHT22;2816;49.778;9.986;2023-07-31T13:19:52;21.90;99.90
5588;DHT22;2816;49.778;9.986;2023-07-31T13:22:19;21.70;99.90
5588;DHT22;2816;49.778;9.986;2023-07-31T13:24:46;21.70;99.90
5588;DHT22;2816;49.778;9.986;2023-07-31T13:27:13;21.70;99.90
5588;DHT22;2816;49.778;9.986;2023-07-31T13:29:42;21.80;99.90
5588;DHT22;2816;49.778;9.986;2023-07-31T13:32:09;21.90;99.90
5588;DHT22;2816;49.778;9.986;2023-07-31T13:34:36;21.90;99.90
5588;DHT22;2816;49.778;9.986;2023-07-31T13:37:05;22.00;99.90
5588;DHT22;2816;49.778;9.986;2023-07-31T13:39:32;22.00;99.90
5588;DHT22;2816;49.778;9.986;2023-07-31T13:41:59;22.10;99.90
5588;DHT22;2816;49.778;9.986;2023-07-31T13:44:26;22.10;99.90
5588;DHT22;2816;49.778;9.986;2023-07-31T13:46:53;22.20;99.90
5588;DHT22;2816;49.778;9.986;2023-07-31T13:49:20;22.20;99.90
5588;DHT22;2816;49.778;9.986;2023-07-31T13:51:47;22.20;99.90
5588;DHT22;2816;49.778;9.986;2023-07-31T13:54:15;22.10;99.90
5588;DHT22;2816;49.778;9.986;2023-07-31T13:56:43;22.20;99.90
5588;DHT22;2816;49.778;9.986;2023-07-31T13:59:10;22.40;99.90
5588;DHT22;2816;49.778;9.986;2023-07-31T14:01:37;22.40;99.90
5588;DHT22;2816;49.778;9.986;2023-07-31T14:04:04;22.50;99.90
5588;DHT22;2816;49.778;9.986;2023-07-31T14:06:31;22.70;99.90
5588;DHT22;2816;49.778;9.986;2023-07-31T14:08:58;22.70;99.90
5588;DHT22;2816;49.778;9.986;2023-07-31T14:11:26;22.70;99.90
5588;DHT22;2816;49.778;9.986;2023-07-31T14:13:53;22.60;99.80
5588;DHT22;2816;49.778;9.986;2023-07-31T14:16:20;22.40;99.90
5588;DHT22;2816;49.778;9.986;2023-07-31T14:18:47;22.50;99.90
5588;DHT22;2816;49.778;9.986;2023-07-31T14:21:14;22.40;99.90
5588;DHT22;2816;49.778;9.986;2023-07-31T14:23:41;22.50;99.90
5588;DHT22;2816;49.778;9.986;2023-07-31T14:26:08;22.50;99.90
5588;DHT22;2816;49.778;9.986;2023-07-31T14:28:37;22.60;99.90
5588;DHT22;2816;49.778;9.986;2023-07-31T14:31:04;22.60;99.90
5588;DHT22;2816;49.778;9.986;2023-07-31T14:33:31;22.60;99.90
5588;DHT22;2816;49.778;9.986;2023-07-31T14:35:58;22.60;99.90
5588;DHT22;2816;49.778;9.986;2023-07-31T14:38:25;22.60;99.90
5588;DHT22;2816;49.778;9.986;2023-07-31T14:40:52;22.60;99.90
5588;DHT22;2816;49.778;9.986;2023-07-31T14:43:19;22.60;99.90
5588;DHT22;2816;49.778;9.986;2023-07-31T14:45:47;22.60;99.90
5588;DHT22;2816;49.778;9.986;2023-07-31T14:48:15;22.60;99.90
5588;DHT22;2816;49.778;9.986;2023-07-31T14:50:41;22.60;99.90
5588;DHT22;2816;49.778;9.986;2023-07-31T14:53:08;22.60;99.90
5588;DHT22;2816;49.778;9.986;2023-07-31T14:55:35;22.60;99.90
5588;DHT22;2816;49.778;9.986;2023-07-31T14:58:02;22.60;99.90
5588;DHT22;2816;49.778;9.986;2023-07-31T15:00:29;22.40;99.90
5588;DHT22;2816;49.778;9.986;2023-07-31T15:02:57;22.40;99.90
5588;DHT22;2816;49.778;9.986;2023-07-31T15:05:24;22.40;99.90
5588;DHT22;2816;49.778;9.986;2023-07-31T15:07:51;22.40;99.90
5588;DHT22;2816;49.778;9.986;2023-07-31T15:10:18;22.20;99.90
5588;DHT22;2816;49.778;9.986;2023-07-31T15:12:45;22.30;99.90
5588;DHT22;2816;49.778;9.986;2023-07-31T15:15:12;22.40;99.90
5588;DHT22;2816;49.778;9.986;2023-07-31T15:17:39;22.40;99.90
5588;DHT22;2816;49.778;9.986;2023-07-31T15:20:09;22.40;99.90
5588;DHT22;2816;49.778;9.986;2023-07-31T15:22:36;22.40;99.90
5588;DHT22;2816;49.778;9.986;2023-07-31T15:25:03;22.50;99.90
5588;DHT22;2816;49.778;9.986;2023-07-31T15:27:30;22.50;99.90
5588;DHT22;2816;49.778;9.986;2023-07-31T15:29:57;22.50;99.90
5588;DHT22;2816;49.778;9.986;2023-07-31T15:32:24;22.30;99.90
5588;DHT22;2816;49.778;9.986;2023-07-31T15:34:51;22.30;99.90
5588;DHT22;2816;49.778;9.986;2023-07-31T15:37:20;22.40;99.90
5588;DHT22;2816;49.778;9.986;2023-07-31T15:39:46;22.30;99.90
5588;DHT22;2816;49.778;9.986;2023-07-31T15:42:13;22.40;99.90
5588;DHT22;2816;49.778;9.986;2023-07-31T15:44:40;22.40;99.90
5588;DHT22;2816;49.778;9.986;2023-07-31T15:47:07;22.40;99.90
5588;DHT22;2816;49.778;9.986;2023-07-31T15:49:34;22.40;99.90
5588;DHT22;2816;49.778;9.986;2023-07-31T15:52:01;22.20;99.90
5588;DHT22;2816;49.778;9.986;2023-07-31T15:54:29;22.30;99.90
5588;DHT22;2816;49.778;9.986;2023-07-31T15:56:56;22.10;99.90
5588;DHT22;2816;49.778;9.986;2023-07-31T15:59:23;22.10;99.90
5588;DHT22;2816;49.778;9.986;2023-07-31T16:01:50;22.10;99.90
5588;DHT22;2816;49.778;9.986;2023-07-31T16:04:17;22.00;99.90
5588;DHT22;2816;49.778;9.986;2023-07-31T16:06:44;22.10;99.90